createdAt,value
2023-02-23T00:01:17.371Z,7.60
2023-02-23T00:04:05.350Z,7.60
2023-02-23T00:06:54.272Z,7.60
2023-02-23T00:09:41.882Z,7.50
2023-02-23T00:12:32.462Z,7.60
2023-02-23T00:15:20.069Z,7.60
2023-02-23T00:18:07.628Z,7.60
2023-02-23T00:20:59.129Z,7.60
2023-02-23T00:23:51.473Z,7.60
2023-02-23T00:26:45.368Z,7.60
2023-02-23T00:29:39.696Z,7.60
2023-02-23T00:32:27.071Z,7.60
2023-02-23T00:35:18.850Z,7.60
2023-02-23T00:38:07.126Z,7.60
2023-02-23T00:40:56.232Z,7.60
2023-02-23T00:43:47.544Z,7.60
2023-02-23T00:46:34.925Z,7.60
2023-02-23T00:49:24.923Z,7.70
2023-02-23T00:52:14.762Z,7.60
2023-02-23T00:55:02.882Z,7.60
2023-02-23T00:57:52.462Z,7.60
2023-02-23T01:00:42.807Z,7.60
2023-02-23T01:03:32.925Z,7.70
2023-02-23T01:06:20.883Z,7.90
2023-02-23T01:09:11.002Z,7.70
2023-02-23T01:12:01.682Z,7.60
2023-02-23T01:14:50.412Z,7.70
2023-02-23T01:17:37.784Z,7.60
2023-02-23T01:45:53.571Z,7.70
2023-02-23T01:48:42.868Z,7.70
2023-02-23T01:51:33.407Z,7.90
2023-02-23T01:54:22.677Z,7.70
2023-02-23T01:57:12.706Z,7.70
2023-02-23T01:59:59.938Z,7.70
2023-02-23T02:02:51.648Z,7.70
2023-02-23T02:05:42.616Z,7.70
2023-02-23T02:08:31.389Z,7.70
2023-02-23T02:11:30.905Z,7.70
2023-02-23T02:14:35.667Z,7.70
2023-02-23T02:17:34.545Z,8.70
2023-02-23T02:20:48.686Z,7.10
2023-02-23T02:23:53.993Z,7.60
2023-02-23T02:26:46.303Z,7.70
2023-02-23T02:29:58.928Z,7.70
2023-02-23T02:33:11.403Z,7.70
2023-02-23T02:36:07.551Z,7.70
2023-02-23T02:38:58.926Z,7.70
2023-02-23T02:41:51.475Z,7.80
2023-02-23T02:44:42.400Z,7.70
2023-02-23T02:47:33.322Z,7.70
2023-02-23T02:50:25.658Z,7.80
2023-02-23T02:53:14.811Z,7.70
2023-02-23T02:56:06.654Z,7.70
2023-02-23T02:58:57.126Z,7.70
2023-02-23T03:02:01.971Z,7.70
2023-02-23T03:05:07.241Z,7.70
2023-02-23T03:08:16.182Z,7.80
2023-02-23T03:11:23.704Z,7.70
2023-02-23T03:14:36.616Z,7.80
2023-02-23T03:17:46.060Z,7.70
2023-02-23T03:20:57.358Z,7.70
2023-02-23T03:24:06.542Z,7.70
2023-02-23T03:27:14.707Z,7.70
2023-02-23T03:30:22.852Z,7.70
2023-02-23T03:33:29.645Z,7.70
2023-02-23T03:36:36.378Z,7.70
2023-02-23T03:39:45.053Z,7.60
2023-02-23T03:42:55.521Z,7.90
2023-02-23T03:46:01.538Z,9.30
2023-02-23T03:49:07.447Z,7.70
2023-02-23T03:52:17.389Z,7.70
2023-02-23T03:55:24.690Z,7.60
2023-02-23T03:58:36.969Z,7.90
2023-02-23T04:01:44.308Z,7.50
2023-02-23T04:04:49.668Z,7.60
2023-02-23T04:07:55.837Z,7.60
2023-02-23T04:11:09.455Z,7.60
2023-02-23T04:13:59.971Z,7.70
2023-02-23T04:16:47.082Z,7.60
2023-02-23T04:19:34.799Z,7.60
2023-02-23T04:22:22.591Z,7.60
2023-02-23T04:25:11.983Z,7.60
2023-02-23T04:27:59.612Z,7.60
2023-02-23T04:30:49.004Z,7.60
2023-02-23T04:33:36.402Z,7.60
2023-02-23T04:36:24.876Z,7.60
2023-02-23T04:39:13.171Z,7.60
2023-02-23T04:42:00.760Z,7.40
2023-02-23T04:44:48.089Z,7.40
2023-02-23T04:47:36.995Z,7.50
2023-02-23T04:50:24.471Z,7.50
2023-02-23T04:53:12.515Z,7.40
2023-02-23T04:56:01.140Z,8.60
2023-02-23T04:58:49.062Z,7.40
2023-02-23T05:01:37.500Z,7.40
2023-02-23T05:04:26.868Z,7.30
2023-02-23T05:07:14.972Z,7.40
2023-02-23T05:10:03.491Z,7.40
2023-02-23T05:12:51.088Z,7.30
2023-02-23T05:15:39.791Z,7.40
2023-02-23T05:18:27.416Z,6.50
2023-02-23T05:21:17.068Z,7.20
2023-02-23T05:24:05.071Z,7.30
2023-02-23T05:26:52.975Z,7.30
2023-02-23T05:29:40.564Z,8.90
2023-02-23T05:32:28.656Z,7.30
2023-02-23T05:35:16.561Z,7.30
2023-02-23T05:38:05.319Z,7.30
2023-02-23T05:40:52.880Z,7.20
2023-02-23T05:43:41.017Z,7.20
2023-02-23T05:46:29.468Z,7.20
2023-02-23T05:49:17.546Z,7.20
2023-02-23T05:52:05.145Z,7.20
2023-02-23T05:54:53.937Z,7.10
2023-02-23T05:57:42.794Z,7.20
2023-02-23T06:00:30.653Z,7.10
2023-02-23T06:03:18.507Z,7.10
2023-02-23T06:06:05.902Z,7.10
2023-02-23T06:08:53.992Z,7.10
2023-02-23T06:11:43.316Z,8.00
2023-02-23T06:14:31.152Z,7.10
2023-02-23T06:17:19.130Z,7.10
2023-02-23T06:20:07.450Z,7.00
2023-02-23T06:22:55.144Z,7.10
2023-02-23T06:25:42.345Z,7.10
2023-02-23T06:28:31.625Z,7.10
2023-02-23T06:31:19.293Z,7.10
2023-02-23T06:34:07.149Z,7.00
2023-02-23T06:36:54.619Z,7.00
2023-02-23T06:39:42.113Z,8.00
2023-02-23T06:42:30.132Z,7.00
2023-02-23T06:45:20.372Z,7.10
2023-02-23T06:48:09.025Z,7.00
2023-02-23T06:50:59.007Z,6.60
2023-02-23T06:53:46.647Z,7.10
2023-02-23T06:56:34.320Z,7.00
2023-02-23T06:59:22.133Z,7.10
2023-02-23T07:02:13.578Z,8.20
2023-02-23T07:05:01.460Z,7.10
2023-02-23T07:07:49.371Z,7.10
2023-02-23T07:10:37.274Z,7.10
2023-02-23T07:13:25.327Z,7.00
2023-02-23T07:16:14.973Z,8.30
2023-02-23T07:19:03.869Z,8.10
2023-02-23T07:21:51.158Z,7.00
2023-02-23T07:24:41.489Z,7.00
2023-02-23T07:27:29.906Z,7.00
2023-02-23T07:30:18.373Z,7.10
2023-02-23T07:33:05.403Z,7.10
2023-02-23T07:35:54.247Z,7.10
2023-02-23T07:38:41.821Z,7.10
2023-02-23T07:41:30.058Z,8.80
2023-02-23T07:44:17.893Z,7.10
2023-02-23T07:47:05.522Z,7.20
2023-02-23T07:52:56.762Z,7.20
2023-02-23T07:55:44.943Z,7.20
2023-02-23T07:58:32.773Z,7.20
2023-02-23T08:01:20.356Z,7.30
2023-02-23T08:04:08.728Z,7.20
2023-02-23T08:06:56.814Z,7.20
2023-02-23T08:09:46.182Z,7.20
2023-02-23T08:12:34.801Z,7.20
2023-02-23T08:15:22.213Z,7.20
2023-02-23T08:18:10.132Z,7.20
2023-02-23T08:21:00.929Z,7.20
2023-02-23T08:23:49.561Z,7.20
2023-02-23T08:26:39.174Z,7.20
2023-02-23T08:29:26.673Z,7.20
2023-02-23T08:32:14.045Z,7.20
2023-02-23T08:35:02.900Z,7.30
2023-02-23T08:37:53.024Z,7.20
2023-02-23T08:40:43.500Z,7.20
2023-02-23T08:43:32.728Z,7.20
2023-02-23T08:46:26.367Z,7.30
2023-02-23T08:49:14.351Z,7.40
2023-02-23T08:52:01.684Z,7.40
2023-02-23T08:54:49.790Z,7.50
2023-02-23T08:57:39.987Z,7.50
2023-02-23T09:00:28.935Z,7.70
2023-02-23T09:03:16.587Z,7.50
2023-02-23T09:06:07.614Z,5.50
2023-02-23T09:08:56.541Z,7.70
2023-02-23T09:11:44.663Z,7.70
2023-02-23T09:14:32.749Z,7.50
2023-02-23T09:17:23.125Z,7.60
2023-02-23T09:20:13.718Z,7.60
2023-02-23T09:23:02.082Z,7.70
2023-02-23T09:25:49.730Z,7.80
2023-02-23T09:28:38.275Z,7.90
2023-02-23T09:31:29.666Z,8.10
2023-02-23T09:34:19.233Z,8.70
2023-02-23T09:37:06.858Z,7.90
2023-02-23T09:39:56.648Z,7.90
2023-02-23T09:42:49.069Z,7.90
2023-02-23T09:45:40.114Z,9.00
2023-02-23T09:48:29.087Z,7.90
2023-02-23T09:51:19.184Z,8.00
2023-02-23T09:54:08.781Z,8.00
2023-02-23T09:56:58.425Z,7.90
2023-02-23T09:59:46.513Z,8.00
2023-02-23T10:02:38.292Z,8.00
2023-02-23T10:05:28.376Z,8.20
2023-02-23T10:08:31.096Z,7.90
2023-02-23T10:11:24.820Z,8.10
2023-02-23T10:14:20.040Z,8.20
2023-02-23T10:17:14.825Z,8.50
2023-02-23T10:20:05.059Z,8.70
2023-02-23T10:22:53.264Z,8.70
2023-02-23T10:25:44.677Z,8.70
2023-02-23T10:28:36.058Z,8.80
2023-02-23T10:31:29.611Z,8.70
2023-02-23T10:34:23.546Z,8.70
2023-02-23T10:37:12.844Z,8.80
2023-02-23T10:40:01.993Z,11.00
2023-02-23T10:42:51.731Z,8.00
2023-02-23T10:45:45.420Z,8.80
2023-02-23T10:48:38.957Z,8.80
2023-02-23T10:51:29.523Z,8.60
2023-02-23T10:54:36.260Z,10.20
2023-02-23T10:57:25.745Z,8.60
2023-02-23T11:00:31.180Z,8.90
2023-02-23T11:03:23.051Z,10.30
2023-02-23T11:06:29.050Z,8.20
2023-02-23T11:09:41.256Z,9.30
2023-02-23T11:12:42.043Z,9.30
2023-02-23T11:15:49.270Z,9.60
2023-02-23T11:18:38.255Z,9.70
2023-02-23T11:21:27.700Z,9.90
2023-02-23T11:24:19.847Z,9.70
2023-02-23T11:27:08.692Z,9.70
2023-02-23T11:29:57.749Z,9.70
2023-02-23T11:32:54.626Z,9.80
2023-02-23T11:35:42.281Z,9.80
2023-02-23T11:38:32.560Z,10.00
2023-02-23T11:41:22.091Z,10.00
2023-02-23T11:44:19.912Z,8.20
2023-02-23T11:47:07.693Z,10.00
2023-02-23T11:49:57.589Z,9.80
2023-02-23T11:52:45.033Z,8.90
2023-02-23T11:55:33.258Z,9.70
2023-02-23T11:58:24.903Z,9.70
2023-02-23T12:01:17.187Z,9.70
2023-02-23T12:04:05.642Z,9.70
2023-02-23T12:06:58.722Z,9.60
2023-02-23T12:09:48.026Z,9.70
2023-02-23T12:12:44.300Z,9.70
2023-02-23T12:15:46.861Z,9.60
2023-02-23T12:18:42.081Z,9.60
2023-02-23T12:21:36.958Z,9.60
2023-02-23T12:24:30.283Z,9.70
2023-02-23T12:27:22.603Z,9.40
2023-02-23T12:30:14.759Z,9.60
2023-02-23T12:33:04.171Z,9.40
2023-02-23T12:35:55.063Z,9.40
2023-02-23T12:38:50.008Z,9.40
2023-02-23T12:41:41.535Z,9.40
2023-02-23T12:44:39.845Z,9.30
2023-02-23T12:47:31.018Z,9.30
2023-02-23T12:50:22.811Z,10.40
2023-02-23T12:53:16.770Z,9.30
2023-02-23T12:56:08.644Z,11.80
2023-02-23T12:59:01.558Z,9.40
2023-02-23T13:01:53.072Z,9.30
2023-02-23T13:04:49.863Z,9.30
2023-02-23T13:07:45.127Z,8.70
2023-02-23T13:10:39.481Z,9.40
2023-02-23T13:13:31.813Z,9.30
2023-02-23T13:16:24.228Z,8.30
2023-02-23T13:19:15.408Z,10.20
2023-02-23T13:22:07.569Z,9.60
2023-02-23T13:24:57.513Z,9.50
2023-02-23T13:27:50.780Z,10.10
2023-02-23T13:30:42.625Z,9.60
2023-02-23T13:33:43.984Z,10.00
2023-02-23T13:36:33.882Z,9.80
2023-02-23T13:39:35.333Z,9.80
2023-02-23T13:42:47.070Z,10.10
2023-02-23T13:45:44.516Z,8.90
2023-02-23T13:48:56.481Z,8.50
2023-02-23T13:51:49.039Z,9.80
2023-02-23T13:54:36.694Z,9.60
2023-02-23T13:57:24.676Z,9.50
2023-02-23T14:00:17.846Z,9.80
2023-02-23T14:03:07.452Z,9.30
2023-02-23T14:06:00.869Z,9.10
2023-02-23T14:08:53.776Z,9.30
2023-02-23T14:11:46.296Z,9.20
2023-02-23T14:14:43.547Z,9.10
2023-02-23T14:17:44.074Z,9.10
2023-02-23T14:20:45.229Z,7.20
2023-02-23T14:23:49.740Z,9.30
2023-02-23T14:26:42.491Z,9.00
2023-02-23T14:29:32.114Z,8.80
2023-02-23T14:32:31.251Z,11.20
2023-02-23T14:35:43.850Z,9.00
2023-02-23T14:38:46.870Z,8.40
2023-02-23T14:41:40.196Z,8.90
2023-02-23T14:44:31.362Z,7.90
2023-02-23T14:47:20.569Z,8.90
2023-02-23T14:50:16.405Z,9.40
2023-02-23T14:53:05.628Z,8.80
2023-02-23T14:55:53.509Z,8.90
2023-02-23T14:58:43.729Z,9.00
2023-02-23T15:01:35.425Z,8.50
2023-02-23T15:04:27.730Z,9.00
2023-02-23T15:07:25.386Z,9.00
2023-02-23T15:10:18.536Z,9.00
2023-02-23T15:13:10.602Z,9.10
2023-02-23T15:16:02.703Z,9.20
2023-02-23T15:18:51.966Z,9.20
2023-02-23T15:21:40.613Z,9.30
2023-02-23T15:24:33.191Z,9.40
2023-02-23T15:27:25.886Z,9.40
2023-02-23T15:30:24.831Z,9.10
2023-02-23T15:33:15.929Z,9.40
2023-02-23T15:36:08.406Z,9.30
2023-02-23T15:38:58.119Z,9.10
2023-02-23T15:41:47.360Z,8.50
2023-02-23T15:44:44.458Z,9.30
2023-02-23T15:47:35.223Z,9.50
2023-02-23T15:50:36.997Z,9.30
2023-02-23T15:53:29.168Z,9.30
2023-02-23T15:56:21.496Z,9.30
2023-02-23T15:59:13.362Z,9.30
2023-02-23T16:02:03.129Z,9.30
2023-02-23T16:04:52.989Z,9.30
2023-02-23T16:07:44.349Z,9.40
2023-02-23T16:10:34.672Z,9.40
2023-02-23T16:13:25.416Z,9.40
2023-02-23T16:16:19.477Z,9.40
2023-02-23T16:19:07.589Z,9.30
2023-02-23T16:21:57.488Z,9.30
2023-02-23T16:24:46.762Z,9.20
2023-02-23T16:27:34.519Z,9.20
2023-02-23T16:30:24.999Z,9.20
2023-02-23T16:33:19.239Z,9.10
2023-02-23T16:36:14.438Z,9.10
2023-02-23T16:39:03.572Z,9.00
2023-02-23T16:41:53.534Z,9.00
2023-02-23T16:44:43.659Z,9.00
2023-02-23T16:47:36.549Z,8.90
2023-02-23T16:50:28.136Z,8.90
2023-02-23T16:53:17.094Z,8.90
2023-02-23T16:56:12.520Z,8.80
2023-02-23T16:59:02.921Z,9.00
2023-02-23T17:01:51.589Z,9.10
2023-02-23T17:04:39.786Z,9.00
2023-02-23T17:07:29.037Z,9.00
2023-02-23T17:10:25.195Z,8.90
2023-02-23T17:13:17.280Z,8.80
2023-02-23T17:16:07.855Z,8.80
2023-02-23T17:18:59.707Z,8.70
2023-02-23T17:21:48.902Z,8.70
2023-02-23T17:24:37.558Z,8.70
2023-02-23T17:27:25.096Z,8.50
2023-02-23T17:30:16.204Z,8.60
2023-02-23T17:33:05.508Z,8.70
2023-02-23T17:35:58.991Z,8.60
2023-02-23T17:38:47.019Z,8.60
2023-02-23T17:41:34.447Z,8.60
2023-02-23T17:44:22.604Z,8.50
2023-02-23T17:47:10.311Z,8.50
2023-02-23T17:49:59.976Z,8.50
2023-02-23T17:52:50.014Z,8.50
2023-02-23T17:55:37.832Z,8.60
2023-02-23T17:58:26.654Z,8.50
2023-02-23T18:01:14.825Z,10.20
2023-02-23T18:04:02.656Z,8.40
2023-02-23T18:06:51.809Z,8.50
2023-02-23T18:09:40.838Z,8.40
2023-02-23T18:12:28.667Z,9.40
2023-02-23T18:15:20.797Z,11.00
2023-02-23T18:18:08.654Z,9.90
2023-02-23T18:20:56.826Z,8.20
2023-02-23T18:23:46.896Z,8.20
2023-02-23T18:26:35.352Z,8.30
2023-02-23T18:29:25.371Z,8.20
2023-02-23T18:32:13.602Z,8.10
2023-02-23T18:35:01.348Z,8.00
2023-02-23T18:37:51.670Z,8.00
2023-02-23T18:40:41.772Z,8.40
2023-02-23T18:43:29.757Z,7.90
2023-02-23T18:46:18.248Z,7.90
2023-02-23T18:49:07.361Z,8.00
2023-02-23T18:51:57.232Z,6.00
2023-02-23T18:54:45.768Z,7.90
2023-02-23T18:57:35.095Z,7.90
2023-02-23T19:00:25.163Z,7.90
2023-02-23T19:03:13.934Z,7.90
2023-02-23T19:06:01.797Z,8.00
2023-02-23T19:08:54.131Z,7.90
2023-02-23T19:11:45.661Z,8.00
2023-02-23T19:14:49.384Z,8.00
2023-02-23T19:17:38.224Z,7.20
2023-02-23T19:20:32.806Z,8.10
2023-02-23T19:23:20.601Z,8.00
2023-02-23T19:26:09.383Z,7.90
2023-02-23T19:28:57.101Z,8.00
2023-02-23T19:31:50.583Z,8.00
2023-02-23T19:34:40.288Z,8.00
2023-02-23T19:37:28.310Z,8.10
2023-02-23T19:40:16.900Z,8.10
2023-02-23T19:43:04.788Z,8.00
2023-02-23T19:45:52.786Z,8.10
2023-02-23T19:48:43.174Z,8.30
2023-02-23T19:51:31.745Z,8.10
2023-02-23T19:54:20.003Z,8.10
2023-02-23T19:57:10.210Z,8.10
2023-02-23T19:59:59.686Z,8.60
2023-02-23T20:02:55.036Z,8.10
2023-02-23T20:05:44.780Z,8.00
2023-02-23T20:08:32.821Z,8.10
2023-02-23T20:11:20.988Z,8.10
2023-02-23T20:14:08.815Z,8.20
2023-02-23T20:17:00.248Z,9.80
2023-02-23T20:19:48.324Z,8.40
2023-02-23T20:22:38.105Z,8.00
2023-02-23T20:25:27.396Z,10.10
2023-02-23T20:28:15.886Z,8.00
2023-02-23T20:31:04.105Z,8.00
2023-02-23T20:33:52.533Z,8.30
2023-02-23T20:36:40.568Z,7.80
2023-02-23T20:39:32.501Z,8.20
2023-02-23T20:42:23.252Z,8.00
2023-02-23T20:45:11.375Z,8.00
2023-02-23T20:48:00.982Z,8.00
2023-02-23T20:50:48.737Z,9.90
2023-02-23T20:53:37.257Z,8.00
2023-02-23T20:56:32.981Z,8.00
2023-02-23T20:59:21.333Z,8.00
2023-02-23T21:02:14.158Z,7.90
2023-02-23T21:05:02.548Z,8.90
2023-02-23T21:07:51.031Z,7.50
2023-02-23T21:10:39.892Z,7.50
2023-02-23T21:13:29.475Z,7.30
2023-02-23T21:16:17.943Z,7.80
2023-02-23T21:19:05.448Z,7.30
2023-02-23T21:21:58.051Z,6.30
2023-02-23T21:24:46.311Z,7.30
2023-02-23T21:27:34.212Z,7.20
2023-02-23T21:30:24.322Z,7.30
2023-02-23T21:33:12.220Z,7.10
2023-02-23T21:35:59.990Z,9.60
2023-02-23T21:38:47.422Z,9.40
2023-02-23T21:41:37.908Z,6.70
2023-02-23T21:44:25.895Z,6.80
2023-02-23T21:47:15.753Z,6.70
2023-02-23T21:50:04.214Z,6.70
2023-02-23T21:53:00.242Z,7.00
2023-02-23T21:55:48.077Z,6.60
2023-02-23T21:58:36.574Z,6.60
2023-02-23T22:01:26.281Z,6.80
2023-02-23T22:04:16.637Z,6.70
2023-02-23T22:07:05.146Z,6.50
2023-02-23T22:09:53.404Z,6.60
2023-02-23T22:12:40.978Z,6.60
2023-02-23T22:15:28.799Z,6.60
2023-02-23T22:18:18.100Z,6.60
2023-02-23T22:21:11.732Z,6.50
2023-02-23T22:23:59.686Z,6.50
2023-02-23T22:26:54.987Z,6.50
2023-02-23T22:29:43.755Z,6.60
2023-02-23T22:32:33.380Z,6.50
2023-02-23T22:35:21.042Z,6.50
2023-02-23T22:38:10.254Z,6.40
2023-02-23T22:40:59.492Z,6.50
2023-02-23T22:43:48.119Z,6.40
2023-02-23T22:46:35.770Z,7.30
2023-02-23T22:49:25.081Z,8.60
2023-02-23T22:52:12.906Z,6.40
2023-02-23T22:55:03.546Z,6.30
2023-02-23T22:57:51.684Z,6.30
2023-02-23T23:00:42.469Z,6.10
2023-02-23T23:03:30.126Z,6.30
2023-02-23T23:06:22.375Z,6.30
2023-02-23T23:09:11.971Z,6.30
2023-02-23T23:12:03.975Z,6.20
2023-02-23T23:14:52.458Z,6.20
2023-02-23T23:17:40.393Z,6.20
2023-02-23T23:20:27.796Z,6.20
2023-02-23T23:23:17.568Z,6.20
2023-02-23T23:26:06.742Z,6.20
2023-02-23T23:28:57.890Z,6.30
2023-02-23T23:31:46.936Z,6.30
2023-02-23T23:34:35.257Z,5.90
2023-02-23T23:37:22.975Z,6.20
2023-02-23T23:40:14.688Z,9.00
2023-02-23T23:43:02.765Z,6.10
2023-02-23T23:45:52.540Z,6.10
2023-02-23T23:48:42.226Z,6.10
2023-02-23T23:51:31.898Z,6.10
2023-02-23T23:54:21.715Z,7.10
2023-02-23T23:57:09.697Z,6.00
2023-02-23T23:59:58.502Z,6.10
